Wyocena, WI

4:19 AM CST on February 10, 2016 (GMT -0600)
RSI Boilers - Main St Arlington | | Change Station
CLOSE
Current Station
Personal Weather Station
Location: Arlington, WI
Elevation: 1020 ft
Nearby Weather Stations

Elev 1020 ft 43.34 °N, 89.38 °W | Updated 4 seconds ago

Overcast
Overcast
7.7 °F
Feels Like -4 °F
N
7.0
Wind Variable Wind from NW
Gusts 11.0 mph

Today
High -- | Low -- °F
--% Chance of Precip.
Yesterday
High -- | Low -- °F
Precip. -- in
Pressure 30.00 in
Visibility 10.0 miles
Clouds Overcast 3000 ft
Windchill -4 °F
Dew Point 2 °F
Humidity 77%
Rainfall 0.00 in
Snow Depth Not available.
7:03 AM 5:20 PM
Waxing Crescent, 4% visible
METAR KDLL 100955Z AUTO 31007KT 10SM OVC030 M14/M19 A3000 RMK AO2 T11401188
Pressure 30.00 in
Visibility 10.0 miles
Clouds Overcast 3000 ft
Windchill -4 °F
Dew Point 2 °F
Humidity 77%
Rainfall 0.00 in
Snow Depth Not available.
7:03 AM 5:20 PM
Waxing Crescent, 4% visible
METAR KDLL 100955Z AUTO 31007KT 10SM OVC030 M14/M19 A3000 RMK AO2 T11401188

10-Day Weather Forecast

Almanac

Astronomy

Feb. 10, 2016 Rise Set
Actual Time
Civil Twilight
Nautical Twilight
Astronomical Twilight
Moon
Length of Visible Light
Length of Day
Tomorrow will be .
, % of the Moon is Illuminated

Today's Extremes

State Highs State Lows

Community

WunderPhotos

Upload Photos

1,891,830 photos uploaded!

WunderBlog® & News

Nearby

Air Quality

  Air Quality AQ Index Pollutant
Not available.

Snow Depth

Station Depth Elevation

Earthquake Activity

City Distance Mag. Time & Date
Minimum magnitude displayed is 2.5.

Coastal Water Temperatures

Place Temperature

Stations

Nearby Weather Stations

Station Location Temp. Windchill Dew Point Humidity Wind Precip. Elev Updated Type
                   

Watches & Warnings

There are currently no watches in effect.